Time;durP1;ratioP1;P1;durP2;ratioP2;P2;SDS_P1;SDS_P2;PMS_P1;PMS_P2;Temp;Humidity;BMP_temperature;BMP_pressure;BME280_temperature;BME280_humidity;BME280_pressure;Samples;Min_cycle;Max_cycle;Signal;HPM_P1;HPM_P2
2021/12/18 00:01:58;;;;;;;;;;;7.20;99.90;;;;;;5129045;27;19930;-83
2021/12/18 00:04:24;;;;;;;;;;;7.20;99.90;;;;;;5100032;28;19924;-83
2021/12/18 00:06:49;;;;;;;;;;;7.30;99.90;;;;;;5091859;27;19924;-83
2021/12/18 00:09:15;;;;;;;;;;;7.20;99.90;;;;;;5098242;28;19931;-83
2021/12/18 00:11:40;;;;;;;;;;;7.20;99.90;;;;;;5110286;27;19931;-83
2021/12/18 00:14:06;;;;;;;;;;;7.20;99.90;;;;;;5114926;27;20292;-83
2021/12/18 00:16:32;;;;;;;;;;;7.20;99.90;;;;;;5116272;27;20406;-83
2021/12/18 00:18:58;;;;;;;;;;;7.20;99.90;;;;;;5115872;27;19999;-83
2021/12/18 00:21:25;;;;;;;;;;;7.20;99.90;;;;;;5109148;28;19935;-83
2021/12/18 00:23:50;;;;;;;;;;;7.20;99.90;;;;;;5098378;28;19946;-83
2021/12/18 00:26:16;;;;;;;;;;;7.20;99.90;;;;;;5081310;28;20014;-83
2021/12/18 00:28:42;;;;;;;;;;;7.20;99.90;;;;;;5127217;27;19927;-83
2021/12/18 00:31:08;;;;;;;;;;;7.20;99.90;;;;;;5097162;28;19928;-83
2021/12/18 00:33:33;;;;;;;;;;;7.20;99.90;;;;;;5109981;27;19934;-83
2021/12/18 00:35:59;;;;;;;;;;;7.10;99.90;;;;;;5092791;28;20437;-83
2021/12/18 00:38:30;;;;;;;;;;;7.20;99.90;;;;;;5111629;27;19927;-83
2021/12/18 00:44:04;;;;;;;;;;;7.20;99.90;;;;;;5092740;28;20307;-83
2021/12/18 00:46:31;;;;;;;;;;;7.20;99.90;;;;;;5129291;27;19923;-83
2021/12/18 00:48:56;;;;;;;;;;;7.20;99.90;;;;;;5116919;27;20010;-83
2021/12/18 00:51:22;;;;;;;;;;;7.10;99.90;;;;;;5133687;27;20057;-83
2021/12/18 00:53:48;;;;;;;;;;;7.20;99.90;;;;;;5101519;28;19935;-83
2021/12/18 00:56:13;;;;;;;;;;;7.20;99.90;;;;;;5097324;28;20435;-83
2021/12/18 00:58:39;;;;;;;;;;;7.20;99.90;;;;;;5113575;27;19924;-83
2021/12/18 01:01:08;;;;;;;;;;;7.10;99.90;;;;;;5104206;27;19923;-83
2021/12/18 01:03:35;;;;;;;;;;;7.10;99.90;;;;;;5133790;27;19927;-83
2021/12/18 01:06:01;;;;;;;;;;;7.10;99.90;;;;;;5116987;27;19923;-83
2021/12/18 01:08:26;;;;;;;;;;;7.10;99.90;;;;;;5116604;27;20009;-83
2021/12/18 01:13:48;;;;;;;;;;;7.10;99.90;;;;;;5133670;27;19946;-83
2021/12/18 01:16:19;;;;;;;;;;;7.10;99.90;;;;;;5100901;27;19979;-83
2021/12/18 01:24:14;;;;;;;;;;;7.10;99.90;;;;;;5119048;27;19927;-83
2021/12/18 01:26:39;;;;;;;;;;;7.10;99.90;;;;;;5116554;27;19975;-83
2021/12/18 01:29:05;;;;;;;;;;;7.10;99.90;;;;;;5116483;27;19930;-83
2021/12/18 01:31:30;;;;;;;;;;;7.10;99.90;;;;;;5115491;27;19946;-83
2021/12/18 01:33:56;;;;;;;;;;;7.10;99.90;;;;;;5116387;27;19923;-83
2021/12/18 01:36:22;;;;;;;;;;;7.20;99.90;;;;;;5132974;27;19965;-83
2021/12/18 01:38:47;;;;;;;;;;;7.20;99.90;;;;;;5099333;27;20310;-83
2021/12/18 01:41:15;;;;;;;;;;;7.20;99.90;;;;;;5110748;28;20406;-83
2021/12/18 01:54:25;;;;;;;;;;;7.30;99.90;;;;;;5096280;28;20324;-84
2021/12/18 01:56:51;;;;;;;;;;;7.20;99.90;;;;;;5112229;28;20068;-84
2021/12/18 01:59:16;;;;;;;;;;;7.20;99.90;;;;;;5112573;28;19931;-84
2021/12/18 02:01:42;;;;;;;;;;;7.20;99.90;;;;;;5078493;28;19928;-84
2021/12/18 02:04:08;;;;;;;;;;;7.30;99.90;;;;;;5095462;28;19972;-83
2021/12/18 02:06:33;;;;;;;;;;;7.30;99.90;;;;;;5095245;28;19928;-83
2021/12/18 02:08:59;;;;;;;;;;;7.30;99.90;;;;;;5095526;28;19930;-84
2021/12/18 02:11:29;;;;;;;;;;;7.30;99.90;;;;;;5078268;28;19930;-84
2021/12/18 02:21:56;;;;;;;;;;;7.40;99.90;;;;;;5112644;28;19931;-84
2021/12/18 02:24:24;;;;;;;;;;;7.40;99.90;;;;;;5095309;28;19924;-84
2021/12/18 02:26:50;;;;;;;;;;;7.40;99.90;;;;;;5098961;28;19945;-83
2021/12/18 02:29:16;;;;;;;;;;;7.50;99.90;;;;;;5112927;28;19977;-83
2021/12/18 02:31:43;;;;;;;;;;;7.50;99.90;;;;;;5103279;28;19980;-84
2021/12/18 02:34:15;;;;;;;;;;;7.50;99.90;;;;;;5112224;28;19930;-84
2021/12/18 02:36:46;;;;;;;;;;;7.50;99.90;;;;;;5094674;28;20172;-84
2021/12/18 02:44:39;;;;;;;;;;;7.50;99.90;;;;;;5121011;27;19930;-84
2021/12/18 02:47:05;;;;;;;;;;;7.50;99.90;;;;;;5119702;27;19923;-84
2021/12/18 02:49:31;;;;;;;;;;;7.50;99.90;;;;;;5115292;28;20040;-84
2021/12/18 02:51:56;;;;;;;;;;;7.50;99.90;;;;;;5093328;27;19939;-84
2021/12/18 02:54:22;;;;;;;;;;;7.40;99.90;;;;;;5082167;28;19927;-84
2021/12/18 02:56:47;;;;;;;;;;;7.40;99.90;;;;;;5113035;27;20003;-84
2021/12/18 02:59:15;;;;;;;;;;;7.40;99.90;;;;;;5119159;27;19934;-84
2021/12/18 03:01:41;;;;;;;;;;;7.40;99.90;;;;;;5102428;27;19923;-84
2021/12/18 03:04:16;;;;;;;;;;;7.40;99.90;;;;;;5102335;27;19924;-84
2021/12/18 03:06:46;;;;;;;;;;;7.50;99.90;;;;;;5118821;27;19981;-84
2021/12/18 03:25:20;;;;;;;;;;;7.40;99.90;;;;;;5135830;27;20380;-84
2021/12/18 03:27:46;;;;;;;;;;;7.50;99.90;;;;;;5135806;27;20153;-84
2021/12/18 03:30:12;;;;;;;;;;;7.50;99.90;;;;;;5136061;27;20437;-84
2021/12/18 03:32:38;;;;;;;;;;;7.50;99.90;;;;;;5118717;27;20360;-84
2021/12/18 03:35:04;;;;;;;;;;;7.50;99.90;;;;;;5101851;27;20307;-84
2021/12/18 03:37:30;;;;;;;;;;;7.50;99.90;;;;;;5118119;27;19924;-84
2021/12/18 03:39:56;;;;;;;;;;;7.50;99.90;;;;;;5118716;27;19930;-84
2021/12/18 03:42:21;;;;;;;;;;;7.50;99.90;;;;;;5103818;28;20728;-84
2021/12/18 03:44:48;;;;;;;;;;;7.50;99.90;;;;;;5097918;28;20014;-84
2021/12/18 03:47:13;;;;;;;;;;;7.50;99.90;;;;;;5098199;28;19927;-84
2021/12/18 03:49:39;;;;;;;;;;;7.60;99.90;;;;;;5114751;28;19924;-84
2021/12/18 03:52:05;;;;;;;;;;;7.40;99.90;;;;;;5115035;28;20364;-84
2021/12/18 03:54:30;;;;;;;;;;;7.40;99.90;;;;;;5097167;28;19988;-84
2021/12/18 03:56:56;;;;;;;;;;;7.40;99.90;;;;;;5108231;27;19932;-84
2021/12/18 03:59:22;;;;;;;;;;;7.40;99.90;;;;;;5118311;27;19928;-84
2021/12/18 04:01:47;;;;;;;;;;;7.40;99.90;;;;;;5135061;27;19927;-84
2021/12/18 04:04:13;;;;;;;;;;;7.40;99.90;;;;;;5135320;27;19975;-84
2021/12/18 04:06:39;;;;;;;;;;;7.40;99.90;;;;;;5100181;27;20340;-84
2021/12/18 04:09:06;;;;;;;;;;;7.40;99.90;;;;;;5135266;27;19924;-84
2021/12/18 04:11:31;;;;;;;;;;;7.40;99.90;;;;;;5135104;27;19934;-83
2021/12/18 04:13:57;;;;;;;;;;;7.40;99.90;;;;;;5135103;27;19927;-84
2021/12/18 04:16:23;;;;;;;;;;;7.50;99.90;;;;;;5117434;27;19931;-84
2021/12/18 04:18:48;;;;;;;;;;;7.50;99.90;;;;;;5134475;27;19923;-84
2021/12/18 04:21:14;;;;;;;;;;;7.50;99.90;;;;;;5117891;27;20424;-84
2021/12/18 04:23:40;;;;;;;;;;;7.50;99.90;;;;;;5117523;27;19946;-84
2021/12/18 04:26:05;;;;;;;;;;;7.50;99.90;;;;;;5117834;27;19923;-84
2021/12/18 04:28:31;;;;;;;;;;;7.50;99.90;;;;;;5096909;28;19924;-84
2021/12/18 04:30:56;;;;;;;;;;;7.50;99.90;;;;;;5129777;27;19927;-84
2021/12/18 04:33:22;;;;;;;;;;;7.50;99.90;;;;;;5134123;27;19935;-84
2021/12/18 04:35:48;;;;;;;;;;;7.60;99.90;;;;;;5117055;27;19962;-83
2021/12/18 04:38:14;;;;;;;;;;;7.60;99.90;;;;;;5117551;27;19927;-84
2021/12/18 04:40:41;;;;;;;;;;;7.60;99.90;;;;;;5116908;27;19923;-84
2021/12/18 04:43:07;;;;;;;;;;;7.60;99.90;;;;;;5134568;27;20009;-84
2021/12/18 04:45:32;;;;;;;;;;;7.60;99.90;;;;;;5117064;27;20470;-83
2021/12/18 04:47:58;;;;;;;;;;;7.60;99.90;;;;;;5117076;27;19923;-84
2021/12/18 04:50:24;;;;;;;;;;;7.60;99.90;;;;;;5117301;27;19934;-84
2021/12/18 04:52:50;;;;;;;;;;;7.60;99.90;;;;;;5116926;27;19975;-84
2021/12/18 04:55:16;;;;;;;;;;;7.60;99.90;;;;;;5133831;27;19930;-84
2021/12/18 04:57:42;;;;;;;;;;;7.60;99.90;;;;;;5116690;27;19927;-84
2021/12/18 05:00:08;;;;;;;;;;;7.60;99.90;;;;;;5134278;27;19928;-84
2021/12/18 05:02:38;;;;;;;;;;;7.60;99.90;;;;;;5133680;27;19935;-84
2021/12/18 05:05:05;;;;;;;;;;;7.60;99.90;;;;;;5133364;27;19927;-84
2021/12/18 05:07:31;;;;;;;;;;;7.60;99.90;;;;;;5116648;27;19932;-84
2021/12/18 05:09:56;;;;;;;;;;;7.60;99.90;;;;;;5133827;27;19927;-84
2021/12/18 05:12:22;;;;;;;;;;;7.60;99.90;;;;;;5116596;27;19952;-84
2021/12/18 05:14:48;;;;;;;;;;;7.70;99.90;;;;;;5133626;27;19967;-84
2021/12/18 05:17:13;;;;;;;;;;;7.70;99.90;;;;;;5098893;27;19934;-84
2021/12/18 05:19:39;;;;;;;;;;;7.70;99.90;;;;;;5116423;27;19923;-84
2021/12/18 05:22:05;;;;;;;;;;;7.70;99.90;;;;;;5133985;27;19928;-84
2021/12/18 05:24:31;;;;;;;;;;;7.60;99.90;;;;;;5134019;27;20014;-84
2021/12/18 05:26:57;;;;;;;;;;;7.70;99.90;;;;;;5126823;27;20019;-84
2021/12/18 05:29:22;;;;;;;;;;;7.70;99.90;;;;;;5135184;27;19966;-84
2021/12/18 05:31:48;;;;;;;;;;;7.60;99.90;;;;;;5117538;27;19923;-84
2021/12/18 05:34:21;;;;;;;;;;;7.70;99.90;;;;;;5133635;27;19927;-84
2021/12/18 05:39:28;;;;;;;;;;;7.70;99.90;;;;;;5117333;27;19924;-84
2021/12/18 05:41:55;;;;;;;;;;;7.70;99.90;;;;;;5115381;27;19927;-84
2021/12/18 05:44:22;;;;;;;;;;;7.70;99.90;;;;;;5133439;27;19924;-84
2021/12/18 05:46:47;;;;;;;;;;;7.70;99.90;;;;;;5115677;27;20001;-84
2021/12/18 05:49:13;;;;;;;;;;;7.70;99.90;;;;;;5116260;27;19934;-84
2021/12/18 05:51:39;;;;;;;;;;;7.70;99.90;;;;;;5132932;27;19946;-84
2021/12/18 05:54:05;;;;;;;;;;;7.70;99.90;;;;;;5132924;27;20052;-84
2021/12/18 05:56:30;;;;;;;;;;;7.80;99.90;;;;;;5115687;27;19970;-84
2021/12/18 05:58:56;;;;;;;;;;;7.80;99.90;;;;;;5115437;28;19931;-84
2021/12/18 06:01:22;;;;;;;;;;;7.70;99.90;;;;;;5133087;27;19923;-84
2021/12/18 06:03:47;;;;;;;;;;;7.80;99.90;;;;;;5132746;27;20395;-84
2021/12/18 06:06:13;;;;;;;;;;;7.80;99.90;;;;;;5115941;27;19984;-84
2021/12/18 06:08:42;;;;;;;;;;;7.70;99.90;;;;;;5132573;27;19924;-84
2021/12/18 06:11:14;;;;;;;;;;;7.90;99.90;;;;;;5098646;27;19934;-84
2021/12/18 06:13:40;;;;;;;;;;;7.90;99.90;;;;;;5099313;27;19924;-84
2021/12/18 06:16:07;;;;;;;;;;;7.90;99.90;;;;;;5114618;28;19930;-84
2021/12/18 06:18:33;;;;;;;;;;;8.00;99.90;;;;;;5087061;27;19931;-84
2021/12/18 06:20:59;;;;;;;;;;;8.00;99.90;;;;;;5131778;27;20086;-84
2021/12/18 06:23:24;;;;;;;;;;;8.00;99.90;;;;;;5132029;27;20052;-84
2021/12/18 06:25:50;;;;;;;;;;;8.10;99.90;;;;;;5115003;28;19932;-84
2021/12/18 06:28:15;;;;;;;;;;;8.10;99.90;;;;;;5114835;27;19930;-84
2021/12/18 06:30:41;;;;;;;;;;;8.10;99.90;;;;;;5132340;27;19930;-84
2021/12/18 06:33:06;;;;;;;;;;;8.10;99.90;;;;;;5131296;28;20035;-84
2021/12/18 06:35:32;;;;;;;;;;;8.10;99.90;;;;;;5131969;28;20288;-84
2021/12/18 06:37:58;;;;;;;;;;;8.10;99.90;;;;;;5131881;28;19924;-84
2021/12/18 06:40:23;;;;;;;;;;;8.10;99.90;;;;;;5114223;28;19924;-84
2021/12/18 06:42:49;;;;;;;;;;;8.10;99.90;;;;;;5098101;28;20329;-85
2021/12/18 06:45:14;;;;;;;;;;;8.10;99.90;;;;;;5115057;28;20312;-84
2021/12/18 06:47:41;;;;;;;;;;;8.20;99.90;;;;;;5114517;28;19923;-84
2021/12/18 06:50:07;;;;;;;;;;;8.20;99.90;;;;;;5113957;28;20436;-84
2021/12/18 06:52:32;;;;;;;;;;;8.20;99.90;;;;;;5098161;28;19927;-84
2021/12/18 06:54:58;;;;;;;;;;;8.20;99.90;;;;;;5114200;28;20388;-84
2021/12/18 06:57:23;;;;;;;;;;;8.20;99.90;;;;;;5115137;28;19995;-84
2021/12/18 06:59:49;;;;;;;;;;;8.20;99.90;;;;;;5114941;28;19986;-84
2021/12/18 07:02:15;;;;;;;;;;;8.20;99.90;;;;;;5111273;28;19946;-84
2021/12/18 07:04:41;;;;;;;;;;;8.20;99.90;;;;;;5110259;28;20348;-85
2021/12/18 07:07:07;;;;;;;;;;;8.20;99.90;;;;;;5101024;28;19927;-86
2021/12/18 07:09:32;;;;;;;;;;;8.20;99.90;;;;;;5115082;28;19923;-84
2021/12/18 07:11:58;;;;;;;;;;;8.20;99.90;;;;;;5098134;28;20023;-86
2021/12/18 07:14:24;;;;;;;;;;;8.30;99.90;;;;;;5115205;28;19934;-85
2021/12/18 07:16:49;;;;;;;;;;;8.20;99.90;;;;;;5131934;28;20375;-82
2021/12/18 07:19:15;;;;;;;;;;;8.20;99.90;;;;;;5131660;28;19924;-83
2021/12/18 07:21:40;;;;;;;;;;;8.20;99.90;;;;;;5111545;28;19924;-84
2021/12/18 07:24:06;;;;;;;;;;;8.20;99.90;;;;;;5081264;28;19985;-85
2021/12/18 07:26:32;;;;;;;;;;;8.20;99.90;;;;;;5111736;28;19932;-84
2021/12/18 07:28:59;;;;;;;;;;;8.20;99.90;;;;;;5090811;27;20425;-84
2021/12/18 07:31:24;;;;;;;;;;;8.30;99.90;;;;;;5135790;27;19966;-84
2021/12/18 07:33:50;;;;;;;;;;;8.20;99.90;;;;;;5099242;27;20386;-84
2021/12/18 07:36:16;;;;;;;;;;;8.30;99.90;;;;;;5101227;27;19923;-89
2021/12/18 07:38:43;;;;;;;;;;;8.30;99.90;;;;;;5135583;27;20022;-84
2021/12/18 07:41:09;;;;;;;;;;;8.30;99.90;;;;;;5117144;27;19924;-87
2021/12/18 07:43:35;;;;;;;;;;;8.30;99.90;;;;;;5135255;27;19923;-79
2021/12/18 07:46:01;;;;;;;;;;;8.30;99.90;;;;;;5117947;27;20432;-85
2021/12/18 07:48:26;;;;;;;;;;;8.30;99.90;;;;;;5118846;27;19978;-85
2021/12/18 07:50:52;;;;;;;;;;;8.30;99.90;;;;;;5118996;27;20019;-87
2021/12/18 07:53:17;;;;;;;;;;;8.30;99.90;;;;;;5097402;28;19927;-83
2021/12/18 07:55:43;;;;;;;;;;;8.30;99.90;;;;;;5134267;27;19927;-86
2021/12/18 07:58:09;;;;;;;;;;;8.30;99.90;;;;;;5134925;27;19923;-85
2021/12/18 08:00:34;;;;;;;;;;;8.30;99.90;;;;;;5118526;27;19930;-82
2021/12/18 08:03:00;;;;;;;;;;;8.30;99.90;;;;;;5095004;28;19974;-82
2021/12/18 08:05:25;;;;;;;;;;;8.30;99.90;;;;;;5116701;27;19931;-83
2021/12/18 08:07:51;;;;;;;;;;;8.30;99.90;;;;;;5114356;27;19923;-82
2021/12/18 08:10:16;;;;;;;;;;;8.30;99.90;;;;;;5133504;27;19928;-83
2021/12/18 08:12:42;;;;;;;;;;;8.40;99.90;;;;;;5134097;27;21447;-82
2021/12/18 08:15:08;;;;;;;;;;;8.40;99.90;;;;;;5134056;27;20391;-82
2021/12/18 08:17:34;;;;;;;;;;;8.40;99.90;;;;;;5117341;27;19927;-82
2021/12/18 08:20:00;;;;;;;;;;;8.40;99.90;;;;;;5118088;27;19923;-82
2021/12/18 08:22:25;;;;;;;;;;;8.40;99.90;;;;;;5117973;27;19956;-82
2021/12/18 08:24:51;;;;;;;;;;;8.40;99.90;;;;;;5134807;27;20386;-82
2021/12/18 08:27:17;;;;;;;;;;;8.40;99.90;;;;;;5134378;27;19999;-82
2021/12/18 08:29:42;;;;;;;;;;;8.40;99.90;;;;;;5117747;27;19927;-83
2021/12/18 08:32:08;;;;;;;;;;;8.40;99.90;;;;;;5117409;27;19924;-83
2021/12/18 08:34:33;;;;;;;;;;;8.40;99.90;;;;;;5100569;27;20013;-82
2021/12/18 08:36:59;;;;;;;;;;;8.40;99.90;;;;;;5116552;27;20375;-83
2021/12/18 08:39:24;;;;;;;;;;;8.40;99.90;;;;;;5114755;27;19924;-87
2021/12/18 08:41:50;;;;;;;;;;;8.40;99.90;;;;;;5116849;27;19976;-82
2021/12/18 08:44:16;;;;;;;;;;;8.40;99.90;;;;;;5117300;27;19923;-83
2021/12/18 08:46:42;;;;;;;;;;;8.40;99.90;;;;;;5116462;27;20382;-82
2021/12/18 08:49:08;;;;;;;;;;;8.40;99.90;;;;;;5133710;27;20336;-84
2021/12/18 08:51:35;;;;;;;;;;;8.40;99.90;;;;;;5099692;27;20010;-83
2021/12/18 08:54:01;;;;;;;;;;;8.40;99.90;;;;;;5116886;27;19924;-84
2021/12/18 08:56:26;;;;;;;;;;;8.40;99.90;;;;;;5132961;27;19931;-84
2021/12/18 08:58:53;;;;;;;;;;;8.40;99.90;;;;;;5133919;27;20342;-83
2021/12/18 09:01:21;;;;;;;;;;;8.40;99.90;;;;;;5089079;27;19924;-83
2021/12/18 09:03:47;;;;;;;;;;;8.40;99.90;;;;;;5117048;27;19930;-83
2021/12/18 09:06:13;;;;;;;;;;;8.40;99.90;;;;;;5113159;28;19927;-84
2021/12/18 09:08:38;;;;;;;;;;;8.40;99.90;;;;;;5102515;27;20022;-88
2021/12/18 09:11:04;;;;;;;;;;;8.40;99.90;;;;;;5116542;27;19927;-83
2021/12/18 09:13:30;;;;;;;;;;;8.30;99.90;;;;;;5133359;27;19928;-83
2021/12/18 09:15:55;;;;;;;;;;;8.40;99.90;;;;;;5133085;27;19970;-84
2021/12/18 09:18:21;;;;;;;;;;;8.40;99.90;;;;;;5133298;27;20280;-82
2021/12/18 09:20:47;;;;;;;;;;;8.40;99.90;;;;;;5133602;27;19925;-85
2021/12/18 09:23:16;;;;;;;;;;;8.40;99.90;;;;;;5091375;27;19923;-87
2021/12/18 09:25:42;;;;;;;;;;;8.40;99.90;;;;;;5117275;27;19971;-86
2021/12/18 09:28:08;;;;;;;;;;;8.40;99.90;;;;;;5117040;27;20372;-86
2021/12/18 09:30:34;;;;;;;;;;;8.40;99.90;;;;;;5133088;27;19927;-83
2021/12/18 09:32:59;;;;;;;;;;;8.40;99.90;;;;;;5116550;27;19924;-87
2021/12/18 09:35:25;;;;;;;;;;;8.40;99.90;;;;;;5115467;27;19931;-84
2021/12/18 09:37:51;;;;;;;;;;;8.40;99.90;;;;;;5133435;27;19929;-85
2021/12/18 09:40:19;;;;;;;;;;;8.40;99.90;;;;;;5116124;27;20415;-86
2021/12/18 09:42:45;;;;;;;;;;;8.40;99.90;;;;;;5119789;27;19987;-86
2021/12/18 09:45:11;;;;;;;;;;;8.40;99.90;;;;;;5119599;27;20022;-86
2021/12/18 09:47:38;;;;;;;;;;;8.40;99.90;;;;;;5133845;27;20647;-84
2021/12/18 09:50:03;;;;;;;;;;;8.40;99.90;;;;;;5119653;27;19923;-82
2021/12/18 09:52:30;;;;;;;;;;;8.40;99.90;;;;;;5118536;27;20328;-85
2021/12/18 09:54:56;;;;;;;;;;;8.40;99.90;;;;;;5136912;27;19929;-86
2021/12/18 09:57:22;;;;;;;;;;;8.40;99.90;;;;;;5119552;27;20340;-85
2021/12/18 09:59:48;;;;;;;;;;;8.30;99.90;;;;;;5118953;27;20006;-83
2021/12/18 10:02:14;;;;;;;;;;;8.40;99.90;;;;;;5119980;27;20030;-83
2021/12/18 10:04:39;;;;;;;;;;;8.40;99.90;;;;;;5120959;27;19927;-82
2021/12/18 10:07:22;;;;;;;;;;;8.40;99.90;;;;;;5136257;27;19927;-82
2021/12/18 10:09:49;;;;;;;;;;;8.40;99.90;;;;;;5118182;27;20399;-82
2021/12/18 10:12:15;;;;;;;;;;;8.50;99.90;;;;;;5135884;27;20033;-83
2021/12/18 10:14:43;;;;;;;;;;;8.50;99.90;;;;;;5118505;27;20510;-82
2021/12/18 10:17:27;;;;;;;;;;;8.50;99.90;;;;;;5119730;27;19930;-83
2021/12/18 10:19:55;;;;;;;;;;;8.50;99.90;;;;;;5127792;27;19927;-81
2021/12/18 10:22:20;;;;;;;;;;;8.50;99.90;;;;;;5118561;27;19923;-81
2021/12/18 10:24:59;;;;;;;;;;;8.60;99.90;;;;;;5101250;27;19948;-81
2021/12/18 10:27:26;;;;;;;;;;;8.60;99.90;;;;;;5106319;27;19924;-83
2021/12/18 10:29:54;;;;;;;;;;;8.60;99.90;;;;;;5134429;27;19923;-83
2021/12/18 10:32:21;;;;;;;;;;;8.60;99.90;;;;;;5134411;27;20306;-83
2021/12/18 10:34:51;;;;;;;;;;;8.60;99.90;;;;;;5118490;27;19927;-83
2021/12/18 10:37:20;;;;;;;;;;;8.60;99.90;;;;;;5133860;27;19973;-83
2021/12/18 10:39:53;;;;;;;;;;;8.60;99.90;;;;;;5134827;27;20055;-83
2021/12/18 10:42:25;;;;;;;;;;;8.70;99.90;;;;;;5112575;27;19958;-83
2021/12/18 10:45:06;;;;;;;;;;;8.70;99.90;;;;;;5125452;27;20291;-83
2021/12/18 10:48:01;;;;;;;;;;;8.70;99.90;;;;;;5126471;27;19971;-82
2021/12/18 10:50:40;;;;;;;;;;;8.70;99.90;;;;;;5116791;27;19923;-83
2021/12/18 10:53:09;;;;;;;;;;;8.70;99.90;;;;;;5130137;27;19923;-83
2021/12/18 10:55:37;;;;;;;;;;;8.70;99.90;;;;;;5107798;27;19931;-82
2021/12/18 10:58:04;;;;;;;;;;;8.70;99.90;;;;;;5126804;27;20326;-81
2021/12/18 11:00:44;;;;;;;;;;;8.70;99.90;;;;;;5118733;27;19931;-83
2021/12/18 11:03:17;;;;;;;;;;;8.70;99.90;;;;;;5112691;27;19923;-83
2021/12/18 11:05:43;;;;;;;;;;;8.70;99.90;;;;;;5118812;27;19954;-83
2021/12/18 11:08:10;;;;;;;;;;;8.70;99.90;;;;;;5100583;27;19931;-83
2021/12/18 11:11:05;;;;;;;;;;;8.70;99.90;;;;;;5106532;27;20395;-83
2021/12/18 11:13:43;;;;;;;;;;;8.70;99.90;;;;;;5136194;27;19926;-84
2021/12/18 11:16:08;;;;;;;;;;;8.80;99.90;;;;;;5099991;27;19923;-84
2021/12/18 11:18:35;;;;;;;;;;;8.80;99.90;;;;;;5127473;27;19971;-85
2021/12/18 11:21:01;;;;;;;;;;;8.80;99.90;;;;;;5141891;27;19929;-87
2021/12/18 11:23:49;;;;;;;;;;;8.80;99.90;;;;;;5150833;27;19923;-85
2021/12/18 11:26:15;;;;;;;;;;;8.80;99.90;;;;;;5108328;27;20272;-85
2021/12/18 11:28:47;;;;;;;;;;;8.80;99.90;;;;;;5105302;27;19930;-86
2021/12/18 11:31:12;;;;;;;;;;;8.80;99.90;;;;;;5121653;27;19934;-85
2021/12/18 11:33:38;;;;;;;;;;;8.80;99.90;;;;;;5122117;27;20267;-84
2021/12/18 11:36:05;;;;;;;;;;;8.80;99.90;;;;;;5122069;27;19927;-87
2021/12/18 11:38:31;;;;;;;;;;;8.80;99.90;;;;;;5121658;27;19923;-86
2021/12/18 11:40:58;;;;;;;;;;;8.80;99.90;;;;;;5121992;27;19927;-86
2021/12/18 11:43:35;;;;;;;;;;;8.80;99.90;;;;;;5122240;27;20373;-85
2021/12/18 11:46:02;;;;;;;;;;;8.80;99.90;;;;;;5121387;27;20027;-83
2021/12/18 11:48:47;;;;;;;;;;;8.90;99.90;;;;;;5121606;27;19926;-85
2021/12/18 11:51:13;;;;;;;;;;;8.80;99.90;;;;;;5121260;27;19934;-87
2021/12/18 11:53:40;;;;;;;;;;;8.80;99.90;;;;;;5121637;27;19923;-88
2021/12/18 11:56:06;;;;;;;;;;;8.80;99.90;;;;;;5121911;27;19923;-86
2021/12/18 11:58:35;;;;;;;;;;;8.80;99.90;;;;;;5138986;27;19923;-84
2021/12/18 12:01:11;;;;;;;;;;;8.80;99.90;;;;;;5121210;27;19923;-81
2021/12/18 12:03:38;;;;;;;;;;;8.80;99.90;;;;;;5134464;27;20014;-82
2021/12/18 12:06:26;;;;;;;;;;;8.80;99.90;;;;;;5111232;27;19935;-83
2021/12/18 12:09:13;;;;;;;;;;;8.80;99.90;;;;;;5111658;27;19946;-83
2021/12/18 12:11:54;;;;;;;;;;;8.80;99.90;;;;;;5118866;27;19923;-83
2021/12/18 12:14:21;;;;;;;;;;;8.80;99.90;;;;;;5129850;27;19930;-82
2021/12/18 12:16:47;;;;;;;;;;;8.80;99.90;;;;;;5137043;27;20109;-84
2021/12/18 12:19:16;;;;;;;;;;;8.80;99.90;;;;;;5120076;27;20359;-82
2021/12/18 12:21:44;;;;;;;;;;;8.80;99.90;;;;;;5134509;27;19942;-83
2021/12/18 12:24:10;;;;;;;;;;;8.80;99.90;;;;;;5134280;27;19972;-82
2021/12/18 12:26:36;;;;;;;;;;;8.80;99.90;;;;;;5116141;27;19930;-83
2021/12/18 12:29:02;;;;;;;;;;;8.80;99.90;;;;;;5108496;27;19931;-83
2021/12/18 12:31:28;;;;;;;;;;;8.80;99.90;;;;;;5104861;27;19972;-83
2021/12/18 12:34:12;;;;;;;;;;;8.80;99.90;;;;;;5098697;27;20363;-83
2021/12/18 12:36:45;;;;;;;;;;;8.80;99.90;;;;;;5111675;27;19930;-83
2021/12/18 12:39:10;;;;;;;;;;;8.70;99.90;;;;;;5101244;27;19930;-83
2021/12/18 12:41:51;;;;;;;;;;;8.70;99.90;;;;;;5137112;27;19923;-83
2021/12/18 12:44:28;;;;;;;;;;;8.70;99.90;;;;;;5120443;27;19927;-83
2021/12/18 12:47:12;;;;;;;;;;;8.70;99.90;;;;;;5118912;27;19965;-82
2021/12/18 12:49:38;;;;;;;;;;;8.60;99.90;;;;;;5120120;27;20316;-84
2021/12/18 12:52:07;;;;;;;;;;;8.70;99.90;;;;;;5119789;27;20001;-83
2021/12/18 12:54:40;;;;;;;;;;;8.70;99.90;;;;;;5119865;27;19927;-83
2021/12/18 12:57:28;;;;;;;;;;;8.70;99.90;;;;;;5136991;27;19938;-83
2021/12/18 13:00:16;;;;;;;;;;;8.60;99.90;;;;;;5136835;27;19926;-84
2021/12/18 13:02:52;;;;;;;;;;;8.70;99.90;;;;;;5119865;27;20292;-86
2021/12/18 13:05:18;;;;;;;;;;;8.60;99.90;;;;;;5118650;27;20418;-84
2021/12/18 13:07:49;;;;;;;;;;;8.60;99.90;;;;;;5135956;27;20384;-83
2021/12/18 13:10:21;;;;;;;;;;;8.60;99.90;;;;;;5119712;27;19991;-82
2021/12/18 13:12:52;;;;;;;;;;;8.60;99.90;;;;;;5132504;27;19934;-83
2021/12/18 13:15:17;;;;;;;;;;;8.60;99.90;;;;;;5112300;27;19930;-84
2021/12/18 13:17:43;;;;;;;;;;;8.60;99.90;;;;;;5118339;27;20451;-86
2021/12/18 13:20:08;;;;;;;;;;;8.50;99.90;;;;;;5120131;27;19948;-89
2021/12/18 13:22:36;;;;;;;;;;;8.50;99.90;;;;;;5101768;27;20375;-82
2021/12/18 13:25:09;;;;;;;;;;;8.60;99.90;;;;;;5131723;27;19942;-82
2021/12/18 13:27:36;;;;;;;;;;;8.60;99.90;;;;;;5131892;27;19931;-82
2021/12/18 13:30:31;;;;;;;;;;;8.50;99.90;;;;;;5099382;27;20060;-82
2021/12/18 13:32:58;;;;;;;;;;;8.50;99.90;;;;;;5116304;27;20268;-82
2021/12/18 13:35:26;;;;;;;;;;;8.60;99.90;;;;;;5115886;27;20389;-82
2021/12/18 13:37:55;;;;;;;;;;;8.60;99.90;;;;;;5109237;27;19992;-81
2021/12/18 13:40:20;;;;;;;;;;;8.50;99.90;;;;;;5115521;27;20299;-81
2021/12/18 13:42:46;;;;;;;;;;;8.60;99.90;;;;;;5098799;27;19924;-82
2021/12/18 13:45:12;;;;;;;;;;;8.50;99.90;;;;;;5102121;27;20447;-81
2021/12/18 13:47:47;;;;;;;;;;;8.60;99.90;;;;;;5114236;27;19964;-81
2021/12/18 13:50:14;;;;;;;;;;;8.50;99.90;;;;;;5114515;27;20023;-82
2021/12/18 13:52:51;;;;;;;;;;;8.50;99.90;;;;;;5102180;27;20326;-82
2021/12/18 13:55:26;;;;;;;;;;;8.50;99.90;;;;;;5118059;27;19923;-84
2021/12/18 13:58:10;;;;;;;;;;;8.40;99.90;;;;;;5132149;27;19931;-85
2021/12/18 14:00:47;;;;;;;;;;;8.40;99.90;;;;;;5120372;27;19929;-82
2021/12/18 14:03:33;;;;;;;;;;;8.40;99.90;;;;;;5115635;27;19966;-82
2021/12/18 14:06:05;;;;;;;;;;;8.40;99.90;;;;;;5103691;27;19930;-82
2021/12/18 14:08:31;;;;;;;;;;;8.40;99.90;;;;;;5119141;27;20017;-83
2021/12/18 14:11:00;;;;;;;;;;;8.30;99.90;;;;;;5118443;27;20374;-83
2021/12/18 14:13:27;;;;;;;;;;;8.30;99.90;;;;;;5135705;27;19923;-82
2021/12/18 14:16:03;;;;;;;;;;;8.30;99.90;;;;;;5117926;27;19934;-84
2021/12/18 14:18:31;;;;;;;;;;;8.30;99.90;;;;;;5131627;27;19986;-87
2021/12/18 14:20:56;;;;;;;;;;;8.30;99.90;;;;;;5135584;27;19922;-86
2021/12/18 14:23:28;;;;;;;;;;;8.20;99.90;;;;;;5118968;27;19949;-86
2021/12/18 14:26:30;;;;;;;;;;;8.20;99.90;;;;;;5119411;27;19993;-86
2021/12/18 14:28:58;;;;;;;;;;;8.20;99.90;;;;;;5016438;28;19960;-83
2021/12/18 14:31:39;;;;;;;;;;;8.10;99.90;;;;;;5112052;27;20436;-84
2021/12/18 14:34:10;;;;;;;;;;;8.10;99.90;;;;;;5110204;28;20010;-83
2021/12/18 14:36:47;;;;;;;;;;;8.10;99.90;;;;;;5113547;27;20286;-84
2021/12/18 14:39:17;;;;;;;;;;;8.00;99.90;;;;;;5140892;27;20340;-83
2021/12/18 14:41:53;;;;;;;;;;;8.00;99.90;;;;;;5114565;27;19927;-84
2021/12/18 14:44:18;;;;;;;;;;;8.00;99.90;;;;;;5112571;27;20006;-85
2021/12/18 14:46:44;;;;;;;;;;;7.90;99.90;;;;;;5104579;27;20022;-83
2021/12/18 14:49:13;;;;;;;;;;;7.90;99.90;;;;;;5107161;27;19945;-88
2021/12/18 14:51:39;;;;;;;;;;;7.90;99.90;;;;;;5140329;27;19927;-84
2021/12/18 14:54:04;;;;;;;;;;;7.90;99.90;;;;;;5121156;27;19956;-86
2021/12/18 14:56:30;;;;;;;;;;;7.90;99.90;;;;;;5115575;27;19923;-85
2021/12/18 14:58:56;;;;;;;;;;;7.90;99.90;;;;;;5104101;27;19931;-85
2021/12/18 15:01:23;;;;;;;;;;;8.00;99.90;;;;;;5121946;27;19927;-84
2021/12/18 15:03:48;;;;;;;;;;;7.90;99.90;;;;;;5123847;27;19927;-85
2021/12/18 15:06:19;;;;;;;;;;;7.90;99.90;;;;;;5142135;27;20378;-83
2021/12/18 15:08:49;;;;;;;;;;;7.90;99.90;;;;;;5125445;27;20323;-82
2021/12/18 15:11:17;;;;;;;;;;;7.90;99.90;;;;;;5141671;27;19987;-82
2021/12/18 15:13:44;;;;;;;;;;;7.90;99.90;;;;;;5142305;27;19926;-84
2021/12/18 15:16:12;;;;;;;;;;;7.80;99.90;;;;;;5124347;27;19923;-83
2021/12/18 15:18:38;;;;;;;;;;;7.80;99.90;;;;;;5124793;27;19927;-82
2021/12/18 15:21:04;;;;;;;;;;;7.80;99.90;;;;;;5125019;27;19923;-83
2021/12/18 15:23:29;;;;;;;;;;;7.70;99.90;;;;;;5107962;27;20014;-82
2021/12/18 15:25:55;;;;;;;;;;;7.70;99.90;;;;;;5124516;27;20006;-82
2021/12/18 15:28:21;;;;;;;;;;;7.70;99.90;;;;;;5124341;27;19923;-82
2021/12/18 15:30:47;;;;;;;;;;;7.70;99.90;;;;;;5124501;27;19949;-85